createdAt,value
2022-09-05T00:02:09.559Z,3.60
2022-09-05T00:04:48.003Z,3.55
2022-09-05T00:07:57.666Z,3.60
2022-09-05T00:10:37.357Z,3.33
2022-09-05T00:13:18.930Z,3.33
2022-09-05T00:16:05.824Z,3.70
2022-09-05T00:24:21.632Z,3.10
2022-09-05T00:24:26.253Z,3.17
2022-09-05T00:25:33.943Z,3.63
2022-09-05T00:28:25.702Z,3.42
2022-09-05T00:31:54.898Z,3.22
2022-09-05T00:34:55.908Z,3.58
2022-09-05T00:37:33.154Z,3.30
2022-09-05T00:40:29.729Z,3.20
2022-09-05T00:43:05.704Z,3.60
2022-09-05T00:45:40.935Z,3.38
2022-09-05T00:48:30.385Z,3.40
2022-09-05T00:51:15.863Z,3.70
2022-09-05T00:54:03.288Z,3.70
2022-09-05T00:57:00.742Z,3.45
2022-09-05T01:00:03.074Z,3.67
2022-09-05T01:02:55.012Z,3.22
2022-09-05T01:05:46.078Z,3.22
2022-09-05T01:08:52.178Z,3.13
2022-09-05T01:11:42.041Z,2.90
2022-09-05T01:14:32.455Z,3.15
2022-09-05T01:17:20.606Z,3.50
2022-09-05T01:20:29.733Z,3.40
2022-09-05T01:23:44.880Z,3.17
2022-09-05T01:27:09.925Z,3.05
2022-09-05T01:29:51.526Z,3.28
2022-09-05T01:32:31.135Z,3.47
2022-09-05T01:36:03.385Z,3.25
2022-09-05T01:39:18.527Z,3.58
2022-09-05T01:41:46.211Z,3.70
2022-09-05T01:44:31.852Z,3.65
2022-09-05T01:47:29.369Z,3.50
2022-09-05T01:50:15.077Z,3.70
2022-09-05T01:53:07.736Z,3.67
2022-09-05T01:56:04.846Z,3.67
2022-09-05T01:59:04.685Z,3.70
2022-09-05T02:01:50.089Z,3.65
2022-09-05T02:04:52.602Z,4.15
2022-09-05T02:07:38.611Z,3.95
2022-09-05T02:10:40.516Z,3.80
2022-09-05T02:13:24.824Z,3.83
2022-09-05T02:16:05.556Z,3.55
2022-09-05T02:18:55.504Z,3.65
2022-09-05T02:21:55.621Z,4.00
2022-09-05T02:24:35.906Z,3.60
2022-09-05T02:28:03.460Z,4.20
2022-09-05T02:30:23.127Z,4.20
2022-09-05T02:33:10.602Z,4.15
2022-09-05T02:35:51.458Z,3.80
2022-09-05T02:39:22.742Z,4.18
2022-09-05T02:45:09.513Z,3.85
2022-09-05T02:45:17.256Z,3.78
2022-09-05T02:47:31.386Z,3.60
2022-09-05T02:53:57.821Z,3.92
2022-09-05T02:57:41.358Z,4.00
2022-09-05T02:57:46.253Z,3.95
2022-09-05T02:59:48.461Z,4.50
2022-09-05T03:02:31.231Z,4.10
2022-09-05T03:05:13.552Z,4.10
2022-09-05T03:08:10.370Z,3.97
2022-09-05T03:11:39.843Z,4.00
2022-09-05T03:14:39.010Z,3.60
2022-09-05T03:17:55.613Z,4.00
2022-09-05T03:21:32.168Z,3.72
2022-09-05T03:24:55.844Z,4.10
2022-09-05T03:28:23.479Z,4.57
2022-09-05T03:31:22.106Z,4.18
2022-09-05T03:34:57.705Z,4.18
2022-09-05T03:38:10.941Z,3.83
2022-09-05T03:41:18.824Z,4.00
2022-09-05T03:44:16.512Z,4.07
2022-09-05T03:47:13.566Z,3.50
2022-09-05T03:57:11.072Z,3.88
2022-09-05T03:57:17.189Z,3.90
2022-09-05T03:57:17.490Z,3.75
2022-09-05T03:59:59.781Z,4.32
2022-09-05T04:04:51.274Z,4.25
2022-09-05T04:08:18.447Z,4.30
2022-09-05T04:08:36.984Z,4.45
2022-09-05T04:11:17.484Z,4.93
2022-09-05T04:13:52.618Z,4.30
2022-09-05T04:16:29.955Z,4.50
2022-09-05T04:19:09.820Z,4.15
2022-09-05T04:21:49.941Z,4.80
2022-09-05T04:24:31.989Z,4.57
2022-09-05T04:27:30.097Z,5.30
2022-09-05T04:30:14.725Z,4.82
2022-09-05T04:33:04.286Z,4.63
2022-09-05T04:35:46.888Z,4.72
2022-09-05T04:38:18.147Z,4.65
2022-09-05T04:40:57.551Z,4.38
2022-09-05T04:43:34.914Z,4.95
2022-09-05T04:46:19.194Z,4.78
2022-09-05T04:49:01.652Z,5.05
2022-09-05T04:52:31.634Z,4.82
2022-09-05T04:55:08.923Z,5.00
2022-09-05T04:57:49.599Z,5.50
2022-09-05T05:05:58.241Z,5.15
2022-09-05T05:06:09.763Z,5.55
2022-09-05T05:06:42.254Z,5.18
2022-09-05T05:09:23.936Z,4.50
2022-09-05T05:17:25.380Z,4.63
2022-09-05T05:18:01.816Z,4.95
2022-09-05T05:18:16.248Z,5.10
2022-09-05T05:20:54.669Z,5.40
2022-09-05T05:23:37.189Z,5.45
2022-09-05T05:26:11.540Z,5.35
2022-09-05T05:28:57.433Z,5.68
2022-09-05T05:31:32.069Z,6.22
2022-09-05T05:34:16.186Z,6.28
2022-09-05T05:37:02.927Z,5.57
2022-09-05T05:39:40.713Z,5.50
2022-09-05T05:42:20.682Z,4.82
2022-09-05T05:44:54.649Z,5.13
2022-09-05T05:47:32.372Z,5.72
2022-09-05T05:50:11.513Z,5.55
2022-09-05T05:53:33.436Z,5.30
2022-09-05T05:56:41.808Z,4.80
2022-09-05T05:59:56.804Z,5.15
2022-09-05T06:03:26.443Z,4.95
2022-09-05T06:06:15.965Z,4.38
2022-09-05T06:14:48.504Z,4.65
2022-09-05T06:14:58.563Z,4.13
2022-09-05T06:17:09.689Z,3.92
2022-09-05T06:21:07.877Z,4.50
2022-09-05T06:23:41.938Z,3.75
2022-09-05T06:27:15.115Z,3.70
2022-09-05T06:29:59.404Z,3.63
2022-09-05T06:32:58.623Z,4.28
2022-09-05T06:35:47.231Z,4.20
2022-09-05T06:38:51.957Z,4.07
2022-09-05T06:41:35.007Z,3.90
2022-09-05T06:44:52.998Z,4.00
2022-09-05T06:47:34.347Z,4.03
2022-09-05T06:50:26.900Z,3.80
2022-09-05T06:53:40.170Z,4.10
2022-09-05T06:56:37.100Z,4.10
2022-09-05T06:59:49.929Z,3.55
2022-09-05T07:02:58.333Z,3.53
2022-09-05T07:05:40.245Z,3.58
2022-09-05T07:08:35.609Z,3.40
2022-09-05T07:11:18.100Z,3.45
2022-09-05T07:14:03.728Z,3.20
2022-09-05T07:16:47.488Z,3.50
2022-09-05T07:19:31.645Z,3.67
2022-09-05T07:22:47.739Z,3.30
2022-09-05T07:25:21.805Z,3.63
2022-09-05T07:28:28.792Z,3.90
2022-09-05T07:30:52.124Z,3.50
2022-09-05T07:33:28.834Z,3.55
2022-09-05T07:36:09.338Z,3.53
2022-09-05T07:38:45.589Z,3.60
2022-09-05T07:41:29.711Z,3.45
2022-09-05T07:44:06.612Z,3.63
2022-09-05T07:46:40.071Z,3.50
2022-09-05T07:49:14.683Z,3.85
2022-09-05T07:56:51.197Z,3.60
2022-09-05T07:57:00.663Z,3.28
2022-09-05T07:57:51.666Z,3.47
2022-09-05T08:00:27.011Z,3.78
2022-09-05T08:03:02.033Z,3.60
2022-09-05T08:05:43.591Z,3.08
2022-09-05T08:08:22.924Z,3.20
2022-09-05T08:11:25.825Z,3.35
2022-09-05T08:14:40.505Z,3.42
2022-09-05T08:16:48.666Z,3.25
2022-09-05T08:19:50.055Z,3.40
2022-09-05T08:22:24.003Z,3.25
2022-09-05T08:25:04.481Z,3.10
2022-09-05T08:27:55.146Z,2.97
2022-09-05T08:30:26.450Z,2.92
2022-09-05T08:33:10.340Z,2.60
2022-09-05T08:35:45.094Z,3.00
2022-09-05T08:38:15.820Z,2.75
2022-09-05T08:40:56.376Z,2.88
2022-09-05T08:45:09.193Z,3.13
2022-09-05T08:46:44.899Z,3.22
2022-09-05T08:49:50.588Z,3.00
2022-09-05T08:52:35.112Z,3.08
2022-09-05T08:55:20.002Z,3.00
2022-09-05T08:58:10.813Z,3.45
2022-09-05T09:00:56.520Z,3.20
2022-09-05T09:03:41.962Z,3.28
2022-09-05T09:07:47.625Z,2.90
2022-09-05T09:10:01.774Z,2.72
2022-09-05T09:13:09.659Z,2.53
2022-09-05T09:15:46.224Z,2.80
2022-09-05T09:18:17.779Z,2.70
2022-09-05T09:20:53.924Z,2.97
2022-09-05T09:23:49.573Z,2.58
2022-09-05T09:26:24.522Z,2.90
2022-09-05T09:29:03.859Z,2.75
2022-09-05T09:32:02.741Z,2.65
2022-09-05T09:34:56.224Z,2.78
2022-09-05T09:38:00.670Z,2.50
2022-09-05T09:41:07.989Z,2.85
2022-09-05T09:44:15.557Z,2.75
2022-09-05T09:46:50.706Z,2.60
2022-09-05T09:49:52.372Z,2.70
2022-09-05T09:52:57.724Z,2.65
2022-09-05T09:56:20.140Z,2.60
2022-09-05T09:59:14.750Z,2.45
2022-09-05T10:01:55.152Z,2.90
2022-09-05T10:10:50.597Z,2.85
2022-09-05T10:11:09.179Z,2.40
2022-09-05T10:11:53.056Z,2.60
2022-09-05T10:15:00.324Z,2.63
2022-09-05T10:18:25.190Z,2.83
2022-09-05T10:21:35.866Z,2.40
2022-09-05T10:24:49.536Z,2.45
2022-09-05T10:27:50.640Z,2.42
2022-09-05T10:32:26.024Z,2.60
2022-09-05T10:35:13.251Z,2.90
2022-09-05T10:36:40.798Z,2.80
2022-09-05T10:39:21.278Z,2.70
2022-09-05T10:41:56.724Z,2.42
2022-09-05T10:44:40.493Z,2.33
2022-09-05T10:47:26.594Z,2.35
2022-09-05T10:50:12.641Z,2.30
2022-09-05T10:53:16.802Z,2.63
2022-09-05T10:56:01.214Z,2.30
2022-09-05T11:02:20.212Z,2.38
2022-09-05T11:02:30.288Z,2.47
2022-09-05T11:05:12.861Z,2.67
2022-09-05T11:07:52.794Z,2.40
2022-09-05T11:10:32.053Z,2.15
2022-09-05T11:13:16.250Z,1.80
2022-09-05T11:16:04.795Z,2.10
2022-09-05T11:19:04.825Z,2.90
2022-09-05T11:22:13.669Z,2.40
2022-09-05T11:24:52.115Z,2.72
2022-09-05T11:27:31.729Z,2.30
2022-09-05T11:30:07.489Z,2.30
2022-09-05T11:39:54.894Z,2.25
2022-09-05T11:40:00.056Z,2.38
2022-09-05T11:40:04.352Z,2.50
2022-09-05T11:42:42.675Z,2.70
2022-09-05T11:45:56.799Z,2.38
2022-09-05T11:49:01.938Z,2.72
2022-09-05T11:52:17.256Z,2.58
2022-09-05T11:55:29.169Z,2.40
2022-09-05T11:58:44.962Z,2.30
2022-09-05T12:01:44.095Z,2.20
2022-09-05T12:04:40.128Z,2.40
2022-09-05T12:07:45.752Z,2.40
2022-09-05T12:10:46.753Z,2.60
2022-09-05T12:13:42.509Z,2.20
2022-09-05T12:16:46.043Z,2.38
2022-09-05T12:19:27.961Z,2.20
2022-09-05T12:22:27.731Z,2.38
2022-09-05T12:27:39.351Z,2.10
2022-09-05T12:29:27.741Z,2.00
2022-09-05T12:33:43.744Z,1.80
2022-09-05T12:36:04.871Z,1.90
2022-09-05T12:41:37.581Z,1.52
2022-09-05T12:41:42.465Z,1.70
2022-09-05T12:44:29.856Z,1.58
2022-09-05T12:46:33.156Z,1.80
2022-09-05T12:49:08.516Z,1.40
2022-09-05T12:51:47.784Z,1.50
2022-09-05T12:54:33.294Z,1.60
2022-09-05T12:58:13.798Z,1.60
2022-09-05T13:02:58.987Z,1.70
2022-09-05T13:03:28.338Z,1.42
2022-09-05T13:06:06.426Z,1.48
2022-09-05T13:08:59.083Z,1.30
2022-09-05T13:14:49.162Z,1.35
2022-09-05T13:14:58.898Z,1.48
2022-09-05T13:17:44.426Z,1.42
2022-09-05T13:20:21.292Z,1.40
2022-09-05T13:22:52.985Z,1.33
2022-09-05T13:25:28.569Z,1.45
2022-09-05T13:28:05.047Z,1.60
2022-09-05T13:37:56.602Z,1.33
2022-09-05T13:38:03.851Z,1.58
2022-09-05T13:38:13.697Z,1.75
2022-09-05T13:39:55.035Z,1.50
2022-09-05T13:42:27.978Z,1.55
2022-09-05T13:45:00.921Z,1.50
2022-09-05T13:47:54.908Z,1.58
2022-09-05T13:50:29.513Z,1.33
2022-09-05T13:53:05.716Z,1.52
2022-09-05T13:55:45.809Z,1.40
2022-09-05T13:58:29.852Z,1.63
2022-09-05T14:01:36.094Z,1.42
2022-09-05T14:05:05.937Z,1.45
2022-09-05T14:08:27.246Z,1.30
2022-09-05T14:11:48.102Z,1.40
2022-09-05T14:17:53.690Z,1.50
2022-09-05T14:20:43.738Z,1.60
2022-09-05T14:23:24.789Z,1.40
2022-09-05T14:26:01.133Z,1.50
2022-09-05T14:28:37.612Z,1.52
2022-09-05T14:34:43.287Z,1.77
2022-09-05T14:37:40.627Z,1.33
2022-09-05T14:38:05.608Z,1.33
2022-09-05T14:41:33.509Z,1.40
2022-09-05T14:44:48.463Z,1.30
2022-09-05T14:48:34.293Z,1.35
2022-09-05T14:51:26.218Z,1.60
2022-09-05T14:54:02.229Z,1.70
2022-09-05T14:57:23.815Z,1.40
2022-09-05T15:02:51.406Z,1.77
2022-09-05T15:02:52.076Z,1.50
2022-09-05T15:05:39.939Z,1.60
2022-09-05T15:08:39.575Z,1.50
2022-09-05T15:12:14.756Z,1.40
2022-09-05T15:13:58.133Z,1.60
2022-09-05T15:16:28.471Z,1.50
2022-09-05T15:18:58.449Z,1.92
2022-09-05T15:21:33.313Z,1.80
2022-09-05T15:24:17.410Z,1.65
2022-09-05T15:26:53.662Z,1.50
2022-09-05T15:29:25.991Z,1.50
2022-09-05T15:32:15.277Z,1.50
2022-09-05T15:34:43.629Z,1.55
2022-09-05T15:37:33.264Z,1.40
2022-09-05T15:40:21.857Z,1.60
2022-09-05T15:42:57.821Z,1.73
2022-09-05T15:45:32.151Z,1.30
2022-09-05T15:48:15.937Z,1.50
2022-09-05T15:50:51.429Z,1.70
2022-09-05T15:53:26.059Z,1.40
2022-09-05T15:55:56.435Z,1.67
2022-09-05T15:58:52.115Z,1.60
2022-09-05T16:01:48.525Z,1.40
2022-09-05T16:10:26.829Z,1.50
2022-09-05T16:10:30.983Z,1.50
2022-09-05T16:10:33.562Z,1.50
2022-09-05T16:12:48.376Z,1.70
2022-09-05T16:17:37.740Z,1.45
2022-09-05T16:23:14.997Z,1.60
2022-09-05T16:23:24.774Z,1.48
2022-09-05T16:24:07.270Z,1.85
2022-09-05T16:26:45.130Z,1.67
2022-09-05T16:29:26.150Z,1.60
2022-09-05T16:32:15.854Z,1.55
2022-09-05T16:34:54.785Z,1.40
2022-09-05T16:37:36.281Z,1.70
2022-09-05T16:40:16.780Z,1.55
2022-09-05T16:42:53.197Z,1.70
2022-09-05T16:45:33.171Z,1.67
2022-09-05T16:48:12.912Z,1.60
2022-09-05T16:50:50.550Z,1.63
2022-09-05T16:53:34.057Z,1.60
2022-09-05T16:56:10.848Z,1.45
2022-09-05T16:58:43.879Z,1.60
2022-09-05T17:01:30.574Z,1.50
2022-09-05T17:04:09.382Z,1.50
2022-09-05T17:06:52.928Z,1.50
2022-09-05T17:09:26.259Z,1.80
2022-09-05T17:12:02.108Z,2.08
2022-09-05T17:14:37.843Z,1.80
2022-09-05T17:18:18.482Z,1.90
2022-09-05T17:20:14.518Z,1.83
2022-09-05T17:24:47.841Z,1.67
2022-09-05T17:29:29.470Z,1.90
2022-09-05T17:29:33.613Z,1.88
2022-09-05T17:31:59.257Z,1.77
2022-09-05T17:35:17.856Z,2.00
2022-09-05T17:38:29.694Z,1.90
2022-09-05T17:41:26.857Z,1.80
2022-09-05T17:44:07.457Z,2.28
2022-09-05T17:46:47.850Z,2.15
2022-09-05T17:49:43.175Z,1.70
2022-09-05T17:52:24.010Z,1.85
2022-09-05T17:54:55.449Z,3.08
2022-09-05T17:57:42.452Z,1.80
2022-09-05T18:01:05.377Z,1.98
2022-09-05T18:04:17.742Z,2.10
2022-09-05T18:07:00.396Z,2.15
2022-09-05T18:10:14.757Z,2.50
2022-09-05T18:13:13.549Z,2.00
2022-09-05T18:16:11.942Z,2.00
2022-09-05T18:21:57.989Z,2.30
2022-09-05T18:24:40.054Z,2.42
2022-09-05T18:27:37.924Z,2.33
2022-09-05T18:30:31.003Z,2.25
2022-09-05T18:33:56.021Z,2.20
2022-09-05T18:36:35.021Z,2.10
2022-09-05T18:39:42.774Z,2.28
2022-09-05T18:42:33.295Z,2.30
2022-09-05T18:45:15.306Z,2.25
2022-09-05T18:47:58.918Z,2.45
2022-09-05T18:50:33.034Z,2.25
2022-09-05T18:53:09.431Z,2.50
2022-09-05T18:56:12.582Z,2.10
2022-09-05T18:59:09.881Z,2.40
2022-09-05T19:01:45.483Z,2.60
2022-09-05T19:04:38.963Z,2.50
2022-09-05T19:07:13.645Z,2.47
2022-09-05T19:10:02.109Z,2.53
2022-09-05T19:12:57.102Z,2.28
2022-09-05T19:15:29.875Z,2.80
2022-09-05T19:18:26.135Z,2.70
2022-09-05T19:21:12.534Z,2.70
2022-09-05T19:23:50.834Z,2.70
2022-09-05T19:26:20.552Z,2.63
2022-09-05T19:36:17.779Z,2.60
2022-09-05T19:36:57.695Z,3.10
2022-09-05T19:37:08.706Z,2.65
2022-09-05T19:37:46.294Z,2.90
2022-09-05T19:46:42.950Z,2.90
2022-09-05T19:47:38.726Z,2.60
2022-09-05T19:47:47.527Z,2.92
2022-09-05T19:49:08.278Z,2.70
2022-09-05T19:51:37.479Z,2.72
2022-09-05T19:54:08.714Z,3.13
2022-09-05T19:56:41.078Z,2.75
2022-09-05T19:59:22.547Z,2.97
2022-09-05T20:01:53.177Z,2.88
2022-09-05T20:04:26.514Z,3.00
2022-09-05T20:06:55.681Z,2.72
2022-09-05T20:09:27.686Z,2.78
2022-09-05T20:11:58.946Z,3.20
2022-09-05T20:14:30.950Z,3.05
2022-09-05T20:17:18.041Z,2.55
2022-09-05T20:19:47.772Z,2.53
2022-09-05T20:22:48.911Z,2.70
2022-09-05T20:25:35.173Z,3.25
2022-09-05T20:28:10.579Z,3.10
2022-09-05T20:30:45.939Z,2.80
2022-09-05T20:33:21.809Z,2.78
2022-09-05T20:43:09.617Z,2.88
2022-09-05T20:43:14.579Z,2.85
2022-09-05T20:43:30.600Z,3.58
2022-09-05T20:44:48.444Z,3.67
2022-09-05T20:53:01.267Z,3.20
2022-09-05T20:54:18.231Z,3.38
2022-09-05T20:54:20.750Z,3.70
2022-09-05T20:56:18.181Z,3.40
2022-09-05T20:58:51.533Z,3.88
2022-09-05T21:01:24.493Z,3.70
2022-09-05T21:04:00.060Z,3.70
2022-09-05T21:06:33.821Z,3.80
2022-09-05T21:09:24.743Z,3.35
2022-09-05T21:11:56.078Z,3.60
2022-09-05T21:14:29.845Z,3.35
2022-09-05T21:17:14.774Z,3.50
2022-09-05T21:19:53.717Z,3.15
2022-09-05T21:22:30.292Z,3.67
2022-09-05T21:25:43.662Z,3.60
2022-09-05T21:28:32.665Z,3.92
2022-09-05T21:31:16.035Z,3.20
2022-09-05T21:33:46.318Z,3.65
2022-09-05T21:36:16.541Z,3.30
2022-09-05T21:38:45.416Z,3.42
2022-09-05T21:41:17.569Z,3.35
2022-09-05T21:47:36.027Z,3.33
2022-09-05T21:47:43.874Z,3.47
2022-09-05T21:49:25.765Z,3.58
2022-09-05T21:51:54.154Z,3.67
2022-09-05T21:58:15.986Z,3.70
2022-09-05T21:59:29.385Z,3.80
2022-09-05T22:00:11.391Z,3.83
2022-09-05T22:02:49.534Z,3.70
2022-09-05T22:05:20.194Z,3.60
2022-09-05T22:07:53.371Z,3.72
2022-09-05T22:10:22.351Z,3.60
2022-09-05T22:13:10.626Z,3.22
2022-09-05T22:15:39.632Z,3.80
2022-09-05T22:18:26.992Z,3.65
2022-09-05T22:21:31.610Z,3.58
2022-09-05T22:23:48.857Z,3.42
2022-09-05T22:26:19.700Z,3.17
2022-09-05T22:28:49.719Z,3.53
2022-09-05T22:31:19.306Z,3.25
2022-09-05T22:33:50.973Z,3.25
2022-09-05T22:36:19.873Z,3.90
2022-09-05T22:38:48.252Z,3.58
2022-09-05T22:41:17.175Z,3.60
2022-09-05T22:43:46.400Z,3.40
2022-09-05T22:46:15.219Z,3.67
2022-09-05T22:48:43.539Z,4.00
2022-09-05T22:51:13.605Z,3.65
2022-09-05T22:53:41.941Z,3.70
2022-09-05T22:56:11.031Z,3.80
2022-09-05T22:58:41.301Z,3.40
2022-09-05T23:01:11.027Z,3.80
2022-09-05T23:03:39.529Z,3.38
2022-09-05T23:06:10.566Z,3.72
2022-09-05T23:08:40.337Z,3.92
2022-09-05T23:11:09.733Z,3.97
2022-09-05T23:13:38.052Z,4.10
2022-09-05T23:16:07.353Z,3.65
2022-09-05T23:18:36.032Z,3.90
2022-09-05T23:21:06.197Z,3.63
2022-09-05T23:23:34.623Z,4.13
2022-09-05T23:26:07.682Z,4.00
2022-09-05T23:28:40.719Z,4.20
2022-09-05T23:31:13.113Z,4.10
2022-09-05T23:33:42.743Z,4.38
2022-09-05T23:36:14.632Z,4.65
2022-09-05T23:38:43.702Z,4.30
2022-09-05T23:41:16.103Z,4.05
2022-09-05T23:43:44.780Z,4.53
2022-09-05T23:46:13.402Z,4.43
2022-09-05T23:48:42.394Z,4.20
2022-09-05T23:51:14.088Z,4.65
2022-09-05T23:53:42.882Z,4.25
2022-09-05T23:56:12.630Z,4.35
2022-09-05T23:58:41.434Z,4.32
